createdAt,value
2023-05-02T00:02:04.220Z,99812.09
2023-05-02T00:04:30.981Z,99821.47
2023-05-02T00:06:57.725Z,99816.25
2023-05-02T00:09:24.416Z,99820.56
2023-05-02T00:11:50.975Z,99819.72
2023-05-02T00:14:17.589Z,99824.94
2023-05-02T00:16:44.439Z,99830.06
2023-05-02T00:19:11.095Z,99831.59
2023-05-02T00:21:37.705Z,99829.97
2023-05-02T00:24:04.474Z,99836.72
2023-05-02T00:26:31.084Z,99837.66
2023-05-02T00:28:58.241Z,99841.84
2023-05-02T00:31:24.859Z,99844.41
2023-05-02T00:33:51.550Z,99846.03
2023-05-02T00:36:18.841Z,99844.34
2023-05-02T00:38:46.006Z,99840.09
2023-05-02T00:41:12.637Z,99853.78
2023-05-02T00:43:42.084Z,99857.06
2023-05-02T00:46:08.798Z,99864.66
2023-05-02T00:48:36.306Z,99870.63
2023-05-02T00:51:05.069Z,99867.22
2023-05-02T00:53:31.894Z,99876.63
2023-05-02T00:55:59.062Z,99875.00
2023-05-02T00:58:26.219Z,99869.00
2023-05-02T01:01:04.476Z,99873.25
2023-05-02T01:03:31.113Z,99874.84
2023-05-02T01:06:16.953Z,99873.16
2023-05-02T01:09:06.974Z,99885.94
2023-05-02T01:11:39.622Z,99887.75
2023-05-02T01:14:09.021Z,99884.41
2023-05-02T01:16:40.486Z,99891.38
2023-05-02T01:19:10.826Z,99887.91
2023-05-02T01:21:37.840Z,99889.56
2023-05-02T01:24:12.741Z,99893.03
2023-05-02T01:26:39.333Z,99890.38
2023-05-02T01:29:07.230Z,99902.47
2023-05-02T01:31:38.304Z,99905.81
2023-05-02T01:34:06.978Z,99911.00
2023-05-02T01:36:34.583Z,99910.00
2023-05-02T01:39:01.875Z,99910.16
2023-05-02T01:41:30.207Z,99918.69
2023-05-02T01:44:01.780Z,99916.19
2023-05-02T01:46:31.761Z,99918.69
2023-05-02T01:48:59.261Z,99925.63
2023-05-02T01:51:31.941Z,99929.91
2023-05-02T01:54:02.520Z,99935.88
2023-05-02T01:56:32.095Z,99928.09
2023-05-02T01:58:59.348Z,99934.22
2023-05-02T02:01:27.711Z,99935.88
2023-05-02T02:03:58.444Z,99938.50
2023-05-02T02:06:26.013Z,99940.22
2023-05-02T02:08:52.636Z,99947.19
2023-05-02T02:11:25.039Z,99951.47
2023-05-02T02:13:55.359Z,99956.59
2023-05-02T02:16:42.563Z,99961.88
2023-05-02T02:19:11.628Z,99972.03
2023-05-02T02:21:41.093Z,99980.75
2023-05-02T02:24:08.068Z,99980.69
2023-05-02T02:26:35.363Z,99981.59
2023-05-02T02:29:01.955Z,99985.88
2023-05-02T02:31:35.753Z,99973.91
2023-05-02T02:34:02.478Z,99975.69
2023-05-02T02:37:05.077Z,99990.09
2023-05-02T02:39:49.921Z,99991.19
2023-05-02T02:42:23.183Z,99986.91
2023-05-02T02:45:09.143Z,99997.31
2023-05-02T02:47:49.466Z,99997.47
2023-05-02T02:50:19.135Z,100006.25
2023-05-02T02:52:45.658Z,100004.91
2023-05-02T02:55:35.590Z,100005.06
2023-05-02T02:58:06.659Z,100009.44
2023-05-02T03:00:33.514Z,100003.56
2023-05-02T03:03:00.509Z,100009.81
2023-05-02T03:05:27.366Z,100011.63
2023-05-02T03:07:54.081Z,100020.22
2023-05-02T03:10:22.080Z,100011.78
2023-05-02T03:12:49.062Z,100015.19
2023-05-02T03:15:54.164Z,100013.38
2023-05-02T03:18:20.897Z,100014.38
2023-05-02T03:20:47.500Z,100014.38
2023-05-02T03:23:14.204Z,100010.03
2023-05-02T03:25:40.744Z,100028.84
2023-05-02T03:28:07.310Z,100027.22
2023-05-02T03:30:33.900Z,100028.94
2023-05-02T03:33:01.732Z,100033.28
2023-05-02T03:35:28.360Z,100037.63
2023-05-02T03:37:54.964Z,100043.75
2023-05-02T03:40:22.063Z,100043.91
2023-05-02T03:42:48.730Z,100043.28
2023-05-02T03:45:15.299Z,100044.31
2023-05-02T03:47:42.080Z,100045.28
2023-05-02T03:50:08.876Z,100051.56
2023-05-02T03:52:35.417Z,100052.59
2023-05-02T03:55:02.021Z,100062.13
2023-05-02T03:57:30.502Z,100063.03
2023-05-02T03:59:57.682Z,100064.84
2023-05-02T04:02:25.388Z,100064.91
2023-05-02T04:04:52.123Z,100065.03
2023-05-02T04:07:19.670Z,100059.16
2023-05-02T04:09:46.760Z,100073.00
2023-05-02T04:12:15.368Z,100070.53
2023-05-02T04:14:41.950Z,100074.94
2023-05-02T04:17:08.726Z,100072.50
2023-05-02T04:19:35.498Z,100077.91
2023-05-02T04:22:02.406Z,100077.25
2023-05-02T04:24:29.248Z,100078.16
2023-05-02T04:26:55.814Z,100083.38
2023-05-02T04:29:22.397Z,100080.94
2023-05-02T04:31:49.464Z,100082.81
2023-05-02T04:34:16.031Z,100090.72
2023-05-02T04:36:45.170Z,100090.84
2023-05-02T04:39:11.803Z,100098.72
2023-05-02T04:41:38.533Z,100097.16
2023-05-02T04:44:05.207Z,100100.69
2023-05-02T04:46:31.891Z,100098.25
2023-05-02T04:48:58.530Z,100098.34
2023-05-02T04:51:25.443Z,100105.38
2023-05-02T04:53:52.035Z,100113.19
2023-05-02T04:56:18.630Z,100108.97
2023-05-02T04:58:45.235Z,100111.69
2023-05-02T05:01:11.866Z,100096.25
2023-05-02T05:03:38.670Z,100106.81
2023-05-02T05:06:05.391Z,100107.06
2023-05-02T05:08:32.055Z,100105.56
2023-05-02T05:10:58.734Z,100103.88
2023-05-02T05:13:25.366Z,100066.13
2023-05-02T05:15:52.400Z,100110.16
2023-05-02T05:18:19.728Z,100108.50
2023-05-02T05:20:46.228Z,100112.00
2023-05-02T05:23:12.882Z,100118.09
2023-05-02T05:25:40.457Z,100119.03
2023-05-02T05:28:09.685Z,100113.88
2023-05-02T05:30:36.498Z,100125.09
2023-05-02T05:33:03.208Z,100123.44
2023-05-02T05:35:29.929Z,100102.88
2023-05-02T05:37:56.470Z,100111.56
2023-05-02T05:40:23.052Z,100109.88
2023-05-02T05:42:49.653Z,100115.13
2023-05-02T05:45:19.463Z,100109.19
2023-05-02T05:47:46.319Z,100117.91
2023-05-02T05:50:12.900Z,100052.53
2023-05-02T05:52:39.588Z,100120.66
2023-05-02T05:55:06.872Z,100114.59
2023-05-02T05:57:33.472Z,100119.78
2023-05-02T06:00:00.312Z,100114.63
2023-05-02T06:02:27.242Z,100075.81
2023-05-02T06:04:53.957Z,100023.31
2023-05-02T06:07:20.642Z,99944.13
2023-05-02T06:09:47.257Z,100113.03
2023-05-02T06:12:15.955Z,100131.22
2023-05-02T06:14:42.516Z,100112.28
2023-05-02T06:17:09.150Z,100006.31
2023-05-02T06:19:35.901Z,100093.44
2023-05-02T06:22:02.603Z,99977.97
2023-05-02T06:24:29.254Z,100060.84
2023-05-02T06:26:55.795Z,100022.09
2023-05-02T06:29:22.392Z,99943.59
2023-05-02T06:31:51.091Z,99920.34
2023-05-02T06:34:17.720Z,99790.16
2023-05-02T06:36:44.295Z,99928.09
2023-05-02T06:39:11.317Z,99824.69
2023-05-02T06:41:37.932Z,99617.78
2023-05-02T06:44:04.580Z,99566.06
2023-05-02T06:46:32.283Z,99802.28
2023-05-02T06:48:58.894Z,99577.25
2023-05-02T06:51:26.061Z,99601.41
2023-05-02T06:53:52.659Z,99606.56
2023-05-02T06:56:19.223Z,99766.09
2023-05-02T06:58:45.875Z,99762.63
2023-05-02T07:01:13.021Z,99773.88
2023-05-02T07:03:39.767Z,99801.47
2023-05-02T07:06:06.420Z,99760.09
2023-05-02T07:08:33.609Z,99843.81
2023-05-02T07:11:00.187Z,99744.56
2023-05-02T07:13:26.773Z,99714.38
2023-05-02T07:15:53.531Z,99780.81
2023-05-02T07:18:21.250Z,99774.78
2023-05-02T07:20:47.986Z,99692.81
2023-05-02T07:23:14.610Z,99718.69
2023-05-02T07:25:41.242Z,99713.53
2023-05-02T07:28:08.118Z,99737.69
2023-05-02T07:30:34.701Z,99837.78
2023-05-02T07:33:01.371Z,99823.09
2023-05-02T07:35:28.094Z,99740.25
2023-05-02T07:37:54.607Z,99789.47
2023-05-02T07:40:21.246Z,99822.25
2023-05-02T07:42:48.385Z,99827.44
2023-05-02T07:45:14.929Z,99728.16
2023-05-02T07:47:42.010Z,99716.97
2023-05-02T07:50:09.195Z,99585.72
2023-05-02T07:52:35.758Z,99574.50
2023-05-02T07:55:02.354Z,99542.53
2023-05-02T07:57:30.085Z,99589.16
2023-05-02T07:59:57.532Z,99603.81
2023-05-02T08:02:24.988Z,99632.28
2023-05-02T08:04:51.908Z,99587.38
2023-05-02T08:07:18.474Z,99605.50
2023-05-02T08:09:45.226Z,99575.28
2023-05-02T08:12:11.854Z,99628.78
2023-05-02T08:14:38.438Z,99584.75
2023-05-02T08:17:05.001Z,99423.25
2023-05-02T08:19:32.052Z,99364.56
2023-05-02T08:21:58.972Z,99482.78
2023-05-02T08:24:25.711Z,99608.00
2023-05-02T08:26:52.279Z,99525.06
2023-05-02T08:29:18.813Z,99466.25
2023-05-02T08:31:45.421Z,99571.59
2023-05-02T08:34:12.102Z,99562.94
2023-05-02T08:36:38.634Z,99572.44
2023-05-02T08:39:05.217Z,99422.91
2023-05-02T08:41:31.967Z,99382.25
2023-05-02T08:43:59.411Z,99332.88
2023-05-02T08:46:26.775Z,99344.91
2023-05-02T08:48:53.884Z,99333.56
2023-05-02T08:51:22.775Z,99343.97
2023-05-02T08:53:49.379Z,99414.00
2023-05-02T08:56:16.190Z,99487.38
2023-05-02T08:58:42.790Z,99445.84
2023-05-02T09:01:21.880Z,99429.38
2023-05-02T09:03:48.888Z,99376.53
2023-05-02T09:06:16.553Z,99290.00
2023-05-02T09:08:44.215Z,99311.72
2023-05-02T09:11:12.092Z,99306.53
2023-05-02T09:13:45.493Z,99311.78
2023-05-02T09:16:13.140Z,99415.44
2023-05-02T09:18:39.868Z,99519.13
2023-05-02T09:21:09.012Z,99490.59
2023-05-02T09:23:36.959Z,99417.88
2023-05-02T09:26:11.705Z,99508.66
2023-05-02T09:28:40.051Z,99387.38
2023-05-02T09:31:49.578Z,99294.66
2023-05-02T09:34:15.004Z,99267.75
2023-05-02T09:36:43.076Z,99252.91
2023-05-02T09:39:14.069Z,99310.88
2023-05-02T09:41:42.131Z,99229.66
2023-05-02T09:44:09.999Z,99304.84
2023-05-02T09:46:40.766Z,99326.25
2023-05-02T09:49:08.004Z,99315.69
2023-05-02T09:51:34.619Z,99383.16
2023-05-02T09:54:01.404Z,99240.91
2023-05-02T09:56:28.781Z,99229.47
2023-05-02T09:59:13.737Z,99227.53
2023-05-02T10:01:42.397Z,99194.47
2023-05-02T10:04:16.503Z,99360.72
2023-05-02T10:06:43.912Z,99169.06
2023-05-02T10:09:17.755Z,99064.94
2023-05-02T10:11:46.748Z,98960.38
2023-05-02T10:14:15.361Z,98999.63
2023-05-02T10:16:47.544Z,98970.00
2023-05-02T10:19:17.934Z,98831.63
2023-05-02T10:21:45.012Z,98801.69
2023-05-02T10:24:14.127Z,98658.13
2023-05-02T10:26:40.794Z,98655.94
2023-05-02T10:29:07.543Z,98798.75
2023-05-02T10:31:34.413Z,98869.13
2023-05-02T10:34:02.066Z,98594.09
2023-05-02T10:36:28.659Z,98847.22
2023-05-02T10:38:55.550Z,99001.72
2023-05-02T10:41:24.664Z,98911.13
2023-05-02T10:43:51.356Z,98934.47
2023-05-02T10:46:37.211Z,98639.88
2023-05-02T10:49:10.713Z,98551.94
2023-05-02T10:51:39.133Z,98659.91
2023-05-02T10:54:18.076Z,98716.72
2023-05-02T10:57:03.668Z,98634.09
2023-05-02T10:59:31.657Z,98549.06
2023-05-02T11:01:58.502Z,98863.47
2023-05-02T11:04:25.258Z,98907.44
2023-05-02T11:07:15.100Z,98429.50
2023-05-02T11:09:41.761Z,98578.66
2023-05-02T11:12:08.616Z,98602.44
2023-05-02T11:14:35.130Z,98463.03
2023-05-02T11:17:01.811Z,98418.63
2023-05-02T11:19:31.064Z,98412.38
2023-05-02T11:22:16.601Z,98485.50
2023-05-02T11:24:44.781Z,98501.06
2023-05-02T11:27:30.110Z,98399.75
2023-05-02T11:29:56.810Z,98218.25
2023-05-02T11:32:23.801Z,98369.09
2023-05-02T11:34:52.795Z,98318.72
2023-05-02T11:37:21.114Z,98371.63
2023-05-02T11:39:47.829Z,98343.03
2023-05-02T11:42:30.443Z,98222.53
2023-05-02T11:44:57.912Z,98251.63
2023-05-02T11:47:26.298Z,98244.88
2023-05-02T11:49:54.961Z,98245.31
2023-05-02T11:52:21.513Z,98143.31
2023-05-02T11:54:48.149Z,98039.00
2023-05-02T11:57:15.464Z,98116.41
2023-05-02T11:59:55.139Z,98084.69
2023-05-02T12:02:35.927Z,98186.69
2023-05-02T12:05:03.535Z,98136.16
2023-05-02T12:07:45.021Z,98244.06
2023-05-02T12:10:12.224Z,98219.00
2023-05-02T12:12:39.786Z,98190.84
2023-05-02T12:15:10.516Z,98238.94
2023-05-02T12:17:38.033Z,98265.94
2023-05-02T12:20:06.322Z,98312.81
2023-05-02T12:22:33.028Z,98267.13
2023-05-02T12:24:59.965Z,98134.78
2023-05-02T12:27:27.377Z,98252.19
2023-05-02T12:29:54.524Z,98000.56
2023-05-02T12:32:28.114Z,98179.88
2023-05-02T12:34:54.686Z,98073.31
2023-05-02T12:37:24.562Z,98124.34
2023-05-02T12:39:51.307Z,98192.19
2023-05-02T12:42:19.575Z,98130.47
2023-05-02T12:44:46.870Z,98117.63
2023-05-02T12:47:16.799Z,98149.47
2023-05-02T12:49:53.520Z,98136.81
2023-05-02T12:52:20.659Z,98129.22
2023-05-02T12:54:47.312Z,98113.06
2023-05-02T12:57:26.127Z,98074.25
2023-05-02T12:59:54.213Z,98128.78
2023-05-02T13:02:21.428Z,98051.06
2023-05-02T13:04:48.047Z,98101.97
2023-05-02T13:07:14.618Z,98143.56
2023-05-02T13:09:41.266Z,98115.28
2023-05-02T13:12:08.525Z,98103.00
2023-05-02T13:14:35.126Z,98123.03
2023-05-02T13:17:01.925Z,98092.41
2023-05-02T13:19:31.376Z,98127.38
2023-05-02T13:21:58.099Z,98122.34
2023-05-02T13:24:24.849Z,97978.63
2023-05-02T13:26:51.761Z,98098.50
2023-05-02T13:29:18.392Z,97987.41
2023-05-02T13:31:44.956Z,98091.75
2023-05-02T13:34:11.523Z,98104.66
2023-05-02T13:36:44.094Z,98175.66
2023-05-02T13:39:10.694Z,98068.53
2023-05-02T13:41:37.493Z,98097.03
2023-05-02T13:44:04.146Z,98117.41
2023-05-02T13:46:36.569Z,98084.84
2023-05-02T13:49:03.851Z,98114.56
2023-05-02T13:51:33.248Z,98145.47
2023-05-02T13:54:00.101Z,98179.16
2023-05-02T13:56:26.922Z,98064.19
2023-05-02T13:58:53.527Z,98066.69
2023-05-02T14:01:20.233Z,98092.03
2023-05-02T14:03:47.123Z,98071.94
2023-05-02T14:06:13.793Z,98124.97
2023-05-02T14:08:40.594Z,98135.28
2023-05-02T14:11:07.471Z,98137.44
2023-05-02T14:13:34.285Z,98085.09
2023-05-02T14:16:00.989Z,98114.69
2023-05-02T14:18:27.598Z,98093.31
2023-05-02T14:20:54.267Z,98106.91
2023-05-02T14:23:21.025Z,98117.97
2023-05-02T14:25:47.609Z,98054.41
2023-05-02T14:28:14.383Z,98069.84
2023-05-02T14:30:40.966Z,98094.75
2023-05-02T14:33:07.638Z,98056.00
2023-05-02T14:35:34.282Z,98090.34
2023-05-02T14:38:01.243Z,98066.28
2023-05-02T14:40:28.011Z,98161.09
2023-05-02T14:42:54.610Z,98155.84
2023-05-02T14:45:21.556Z,98165.59
2023-05-02T14:47:48.168Z,98130.22
2023-05-02T14:50:14.940Z,98194.91
2023-05-02T14:52:42.074Z,98232.91
2023-05-02T14:55:08.934Z,98223.81
2023-05-02T14:57:35.608Z,98187.63
2023-05-02T15:00:02.800Z,98251.88
2023-05-02T15:02:30.490Z,98281.22
2023-05-02T15:04:57.187Z,98272.78
2023-05-02T15:07:23.886Z,98321.22
2023-05-02T15:09:50.523Z,98300.34
2023-05-02T15:12:17.077Z,98318.28
2023-05-02T15:14:43.705Z,98321.25
2023-05-02T15:17:10.407Z,98358.03
2023-05-02T15:19:37.019Z,98369.47
2023-05-02T15:22:03.597Z,98371.72
2023-05-02T15:24:30.678Z,98385.94
2023-05-02T15:26:57.436Z,98424.09
2023-05-02T15:29:24.049Z,98466.13
2023-05-02T15:31:50.639Z,98482.97
2023-05-02T15:34:17.247Z,98508.84
2023-05-02T15:36:43.847Z,98538.63
2023-05-02T15:39:10.524Z,98560.31
2023-05-02T15:41:37.087Z,98578.81
2023-05-02T15:44:03.742Z,98611.06
2023-05-02T15:46:30.358Z,98591.41
2023-05-02T15:48:57.017Z,98649.66
2023-05-02T15:51:23.645Z,98655.41
2023-05-02T15:53:52.427Z,98690.31
2023-05-02T15:56:21.200Z,98684.72
2023-05-02T15:58:48.306Z,98682.59
2023-05-02T16:01:14.987Z,98723.38
2023-05-02T16:03:42.061Z,98730.19
2023-05-02T16:06:08.996Z,98726.31
2023-05-02T16:08:35.925Z,98731.00
2023-05-02T16:11:02.572Z,98749.59
2023-05-02T16:13:29.210Z,98767.28
2023-05-02T16:15:56.230Z,98807.09
2023-05-02T16:18:28.209Z,98820.38
2023-05-02T16:20:55.819Z,98830.19
2023-05-02T16:23:23.602Z,98830.31
2023-05-02T16:25:50.435Z,98838.50
2023-05-02T16:28:17.304Z,98846.47
2023-05-02T16:30:43.911Z,98865.06
2023-05-02T16:33:10.861Z,98859.16
2023-05-02T16:35:37.460Z,98874.88
2023-05-02T16:38:04.146Z,98907.47
2023-05-02T16:40:31.296Z,98906.00
2023-05-02T16:42:57.935Z,98909.53
2023-05-02T16:45:24.674Z,98912.34
2023-05-02T16:47:51.648Z,98928.13
2023-05-02T16:50:18.288Z,98942.22
2023-05-02T16:52:44.885Z,98947.63
2023-05-02T16:55:11.536Z,98962.53
2023-05-02T16:57:39.159Z,98960.94
2023-05-02T17:00:08.250Z,98969.88
2023-05-02T17:02:34.949Z,98985.72
2023-05-02T17:05:01.626Z,99002.25
2023-05-02T17:07:28.391Z,99011.13
2023-05-02T17:09:54.995Z,99020.00
2023-05-02T17:12:25.804Z,99039.38
2023-05-02T17:14:52.378Z,99037.69
2023-05-02T17:17:22.874Z,99051.78
2023-05-02T17:19:49.739Z,99062.28
2023-05-02T17:22:16.710Z,99074.63
2023-05-02T17:24:45.493Z,99079.97
2023-05-02T17:27:12.130Z,99087.94
2023-05-02T17:29:38.746Z,99087.16
2023-05-02T17:32:05.476Z,99120.22
2023-05-02T17:34:33.461Z,99118.56
2023-05-02T17:37:00.030Z,99115.13
2023-05-02T17:39:26.571Z,99123.72
2023-05-02T17:41:53.163Z,99131.56
2023-05-02T17:44:19.856Z,99135.09
2023-05-02T17:46:46.747Z,99143.81
2023-05-02T17:49:13.544Z,99144.72
2023-05-02T17:51:40.160Z,99143.91
2023-05-02T17:54:06.750Z,99153.59
2023-05-02T17:56:35.087Z,99158.94
2023-05-02T17:59:01.787Z,99155.50
2023-05-02T18:01:28.408Z,99156.44
2023-05-02T18:03:55.130Z,99164.28
2023-05-02T18:06:21.915Z,99171.25
2023-05-02T18:08:48.504Z,99188.75
2023-05-02T18:11:16.641Z,99181.09
2023-05-02T18:13:43.863Z,99181.19
2023-05-02T18:16:10.767Z,99183.00
2023-05-02T18:18:37.597Z,99185.69
2023-05-02T18:21:04.377Z,99192.75
2023-05-02T18:23:31.025Z,99198.03
2023-05-02T18:25:57.629Z,99204.16
2023-05-02T18:28:24.283Z,99204.13
2023-05-02T18:30:51.052Z,99205.88
2023-05-02T18:33:17.642Z,99207.63
2023-05-02T18:35:48.317Z,99217.22
2023-05-02T18:38:15.896Z,99225.97
2023-05-02T18:40:42.726Z,99243.34
2023-05-02T18:43:09.345Z,99244.25
2023-05-02T18:45:36.131Z,99248.69
2023-05-02T18:48:03.438Z,99264.28
2023-05-02T18:50:30.091Z,99268.59
2023-05-02T18:52:56.748Z,99281.59
2023-05-02T18:55:25.237Z,99288.59
2023-05-02T18:57:52.091Z,99293.91
2023-05-02T19:00:20.415Z,99310.47
2023-05-02T19:02:48.050Z,99309.69
2023-05-02T19:05:15.178Z,99317.59
2023-05-02T19:07:42.459Z,99324.56
2023-05-02T19:10:10.987Z,99327.19
2023-05-02T19:12:37.681Z,99339.38
2023-05-02T19:15:05.099Z,99344.59
2023-05-02T19:17:31.941Z,99345.50
2023-05-02T19:19:58.696Z,99340.31
2023-05-02T19:22:27.700Z,99348.13
2023-05-02T19:24:54.363Z,99351.66
2023-05-02T19:27:21.152Z,99356.84
2023-05-02T19:29:47.713Z,99357.78
2023-05-02T19:32:14.732Z,99355.22
2023-05-02T19:34:41.637Z,99360.41
2023-05-02T19:37:08.340Z,99366.50
2023-05-02T19:39:35.048Z,99378.66
2023-05-02T19:42:03.182Z,99381.34
2023-05-02T19:44:30.048Z,99383.09
2023-05-02T19:46:56.614Z,99390.03
2023-05-02T19:49:23.310Z,99402.19
2023-05-02T19:51:49.963Z,99397.00
2023-05-02T19:54:16.538Z,99402.19
2023-05-02T19:56:43.416Z,99415.16
2023-05-02T19:59:10.243Z,99419.50
2023-05-02T20:01:36.979Z,99410.88
2023-05-02T20:04:05.865Z,99416.91
2023-05-02T20:06:33.816Z,99416.91
2023-05-02T20:09:00.584Z,99419.50
2023-05-02T20:11:27.256Z,99425.56
2023-05-02T20:13:54.545Z,99419.50
2023-05-02T20:16:21.326Z,99428.19
2023-05-02T20:18:48.154Z,99432.53
2023-05-02T20:21:14.780Z,99442.06
2023-05-02T20:23:43.465Z,99436.91
2023-05-02T20:26:10.664Z,99438.66
2023-05-02T20:28:37.865Z,99439.56
2023-05-02T20:31:04.626Z,99448.25
2023-05-02T20:33:43.683Z,99448.25
2023-05-02T20:36:13.415Z,99454.34
2023-05-02T20:38:42.565Z,99462.13
2023-05-02T20:41:12.617Z,99452.66
2023-05-02T20:43:40.239Z,99457.81
2023-05-02T20:46:10.938Z,99464.72
2023-05-02T20:48:37.701Z,99478.56
2023-05-02T20:51:04.452Z,99481.16
2023-05-02T20:53:31.033Z,99483.78
2023-05-02T20:55:57.652Z,99480.31
2023-05-02T20:58:24.228Z,99484.66
2023-05-02T21:00:52.727Z,99493.28
2023-05-02T21:03:22.288Z,99501.09
2023-05-02T21:05:52.919Z,99506.28
2023-05-02T21:08:19.693Z,99507.13
2023-05-02T21:10:46.506Z,99505.41
2023-05-02T21:13:13.326Z,99500.25
2023-05-02T21:15:40.555Z,99508.88
2023-05-02T21:18:07.473Z,99513.16
2023-05-02T21:20:34.498Z,99513.16
2023-05-02T21:23:01.038Z,99513.16
2023-05-02T21:25:27.584Z,99509.72
2023-05-02T21:27:54.217Z,99511.44
2023-05-02T21:30:21.180Z,99514.91
2023-05-02T21:32:47.800Z,99499.34
2023-05-02T21:35:14.383Z,99514.91
2023-05-02T21:37:41.236Z,99513.19
2023-05-02T21:40:08.563Z,99521.81
2023-05-02T21:42:35.311Z,99508.00
2023-05-02T21:45:02.110Z,99525.25
2023-05-02T21:47:30.322Z,99523.50
2023-05-02T21:49:57.356Z,99528.69
2023-05-02T21:52:23.928Z,99531.31
2023-05-02T21:54:52.456Z,99532.19
2023-05-02T21:57:22.004Z,99533.03
2023-05-02T21:59:48.883Z,99537.38
2023-05-02T22:02:15.570Z,99538.22
2023-05-02T22:04:43.137Z,99563.31
2023-05-02T22:07:09.668Z,99552.94
2023-05-02T22:09:36.548Z,99558.97
2023-05-02T22:12:03.769Z,99557.28
2023-05-02T22:14:43.686Z,99549.50
2023-05-02T22:17:12.419Z,99547.81
2023-05-02T22:19:39.345Z,99559.88
2023-05-02T22:22:06.699Z,99572.84
2023-05-02T22:24:33.567Z,99562.50
2023-05-02T22:27:00.170Z,99569.41
2023-05-02T22:29:26.806Z,99570.28
2023-05-02T22:31:53.493Z,99567.69
2023-05-02T22:34:20.781Z,99570.28
2023-05-02T22:36:47.372Z,99577.22
2023-05-02T22:39:15.655Z,99581.53
2023-05-02T22:41:42.795Z,99593.59
2023-05-02T22:44:09.768Z,99585.88
2023-05-02T22:46:38.255Z,99599.66
2023-05-02T22:49:06.048Z,99594.50
2023-05-02T22:51:33.451Z,99603.97
2023-05-02T22:54:00.458Z,99608.28
2023-05-02T22:56:27.345Z,99616.91
2023-05-02T22:58:53.918Z,99615.19
2023-05-02T23:01:20.663Z,99618.63
2023-05-02T23:03:47.451Z,99616.06
2023-05-02T23:06:15.143Z,99610.00
2023-05-02T23:08:41.823Z,99620.34
2023-05-02T23:11:08.553Z,99616.91
2023-05-02T23:13:35.512Z,99622.06
2023-05-02T23:16:02.348Z,99615.19
2023-05-02T23:18:28.979Z,99619.47
2023-05-02T23:20:55.535Z,99622.03
2023-05-02T23:23:22.190Z,99620.31
2023-05-02T23:25:48.948Z,99632.38
2023-05-02T23:28:15.595Z,99637.53
2023-05-02T23:30:42.174Z,99632.34
2023-05-02T23:33:09.327Z,99651.31
2023-05-02T23:35:36.274Z,99640.09
2023-05-02T23:38:05.084Z,99650.41
2023-05-02T23:40:32.781Z,99661.63
2023-05-02T23:42:59.941Z,99653.00
2023-05-02T23:45:26.517Z,99665.88
2023-05-02T23:47:53.190Z,99671.03
2023-05-02T23:50:19.786Z,99677.06
2023-05-02T23:52:46.345Z,99680.50
2023-05-02T23:55:13.128Z,99680.50
2023-05-02T23:57:39.746Z,99694.28
